Time;durP1;ratioP1;P1;durP2;ratioP2;P2;SDS_P1;SDS_P2;PMS_P1;PMS_P2;Temp;Humidity;BMP_temperature;BMP_pressure;BME280_temperature;BME280_humidity;BME280_pressure;Samples;Min_cycle;Max_cycle;Signal;HPM_P1;HPM_P2
2020/12/22 00:01:17;;;;;;;2.78;1.60;;;9.20;99.90;;;;;;5016571;28;20053;-66
2020/12/22 00:03:44;;;;;;;2.10;1.50;;;9.20;99.90;;;;;;5009765;28;20076;-66
2020/12/22 00:06:11;;;;;;;2.92;1.58;;;9.30;99.90;;;;;;5010231;28;20095;-66
2020/12/22 00:08:38;;;;;;;2.65;1.33;;;9.30;99.90;;;;;;5011250;28;20208;-66
2020/12/22 00:11:05;;;;;;;3.08;2.08;;;9.40;99.90;;;;;;5011450;28;20499;-66
2020/12/22 00:13:31;;;;;;;1.98;1.42;;;9.40;99.90;;;;;;5020422;28;20142;-66
2020/12/22 00:15:58;;;;;;;2.92;2.05;;;9.40;99.90;;;;;;5013939;28;20050;-66
2020/12/22 00:18:24;;;;;;;1.45;0.98;;;9.40;99.90;;;;;;5010851;28;20045;-66
2020/12/22 00:20:50;;;;;;;1.33;0.80;;;9.40;99.90;;;;;;5014732;28;20077;-66
2020/12/22 00:23:16;;;;;;;3.97;1.60;;;9.40;99.90;;;;;;5009737;28;20130;-66
2020/12/22 00:25:45;;;;;;;2.13;0.70;;;9.50;99.90;;;;;;5003134;28;20066;-66
2020/12/22 00:28:12;;;;;;;1.52;0.95;;;9.40;99.90;;;;;;5008814;28;20145;-66
2020/12/22 00:30:38;;;;;;;1.13;0.70;;;9.50;99.90;;;;;;5008950;28;20080;-66
2020/12/22 00:33:06;;;;;;;1.00;0.70;;;9.60;99.90;;;;;;5011572;28;20120;-66
2020/12/22 00:35:32;;;;;;;1.80;0.80;;;9.60;99.90;;;;;;5011078;28;20069;-66
2020/12/22 00:37:59;;;;;;;1.00;0.60;;;9.60;99.90;;;;;;5010707;28;20049;-66
2020/12/22 00:40:27;;;;;;;2.90;0.80;;;9.50;99.90;;;;;;5010110;28;20078;-67
2020/12/22 00:42:53;;;;;;;1.70;0.90;;;9.70;99.90;;;;;;5011420;28;20053;-66
2020/12/22 00:45:21;;;;;;;1.05;0.60;;;9.70;99.90;;;;;;5011356;28;20049;-66
2020/12/22 00:47:48;;;;;;;1.17;0.70;;;9.70;99.90;;;;;;5011045;28;20456;-65
2020/12/22 00:50:15;;;;;;;0.88;0.70;;;9.70;99.90;;;;;;5010588;28;20133;-66
2020/12/22 00:52:42;;;;;;;1.48;0.98;;;9.70;99.90;;;;;;5010457;28;20057;-65
2020/12/22 00:55:09;;;;;;;1.77;0.88;;;9.70;99.90;;;;;;5010001;28;20139;-65
2020/12/22 00:57:35;;;;;;;1.77;0.80;;;9.70;99.90;;;;;;5009961;28;20148;-65
2020/12/22 01:00:07;;;;;;;1.17;0.73;;;9.70;99.90;;;;;;5011117;28;20133;-65
2020/12/22 01:02:34;;;;;;;3.22;1.30;;;9.70;99.90;;;;;;5010979;28;20148;-65
2020/12/22 01:05:01;;;;;;;0.85;0.55;;;9.70;99.90;;;;;;5006587;28;20132;-67
2020/12/22 01:07:27;;;;;;;1.10;0.60;;;9.70;99.90;;;;;;5005904;28;20313;-66
2020/12/22 01:09:53;;;;;;;0.80;0.50;;;9.60;99.90;;;;;;5010593;28;20132;-66
2020/12/22 01:12:19;;;;;;;1.27;0.65;;;9.70;99.90;;;;;;5009313;28;20042;-66
2020/12/22 01:14:46;;;;;;;1.00;0.50;;;9.70;99.90;;;;;;5008989;28;20104;-66
2020/12/22 01:17:12;;;;;;;0.65;0.45;;;9.70;99.90;;;;;;5009339;28;20173;-66
2020/12/22 01:19:38;;;;;;;1.30;0.40;;;9.70;99.90;;;;;;5009730;28;20125;-66
2020/12/22 01:22:05;;;;;;;0.63;0.40;;;9.70;99.90;;;;;;5011040;28;20050;-66
2020/12/22 01:24:31;;;;;;;1.00;0.68;;;9.70;99.90;;;;;;5011033;28;20127;-66
2020/12/22 01:26:57;;;;;;;0.90;0.50;;;9.70;99.90;;;;;;5010080;28;20077;-66
2020/12/22 01:29:24;;;;;;;1.02;0.43;;;9.70;99.90;;;;;;5010400;28;20144;-66
2020/12/22 01:31:50;;;;;;;1.10;0.60;;;9.70;99.90;;;;;;5009808;28;20136;-66
2020/12/22 01:34:16;;;;;;;1.00;0.60;;;9.80;99.90;;;;;;5007215;28;20100;-66
2020/12/22 01:36:43;;;;;;;2.28;0.65;;;9.80;99.90;;;;;;5009898;28;20050;-66
2020/12/22 01:39:09;;;;;;;1.42;0.70;;;9.70;99.90;;;;;;5010431;28;20041;-67
2020/12/22 01:41:36;;;;;;;2.30;1.02;;;9.70;99.90;;;;;;5010304;28;20600;-66
2020/12/22 01:44:10;;;;;;;0.95;0.60;;;9.80;99.90;;;;;;5010281;28;20148;-66
2020/12/22 01:46:40;;;;;;;1.42;0.85;;;9.80;99.90;;;;;;5003675;28;20056;-66
2020/12/22 01:49:13;;;;;;;1.85;0.90;;;9.80;99.90;;;;;;5010252;28;20141;-66
2020/12/22 01:51:42;;;;;;;2.40;0.88;;;9.80;99.90;;;;;;5009800;28;20499;-66
2020/12/22 01:54:09;;;;;;;1.40;0.80;;;9.80;99.90;;;;;;5010440;28;20434;-66
2020/12/22 01:56:37;;;;;;;1.98;0.75;;;9.90;99.90;;;;;;5010379;28;20045;-65
2020/12/22 01:59:04;;;;;;;1.38;0.80;;;9.90;99.90;;;;;;5010028;28;20046;-66
2020/12/22 02:01:33;;;;;;;1.75;0.90;;;9.80;99.90;;;;;;5009409;28;20140;-66
2020/12/22 02:04:01;;;;;;;1.83;1.00;;;9.90;99.90;;;;;;4988895;28;20459;-66
2020/12/22 02:06:28;;;;;;;1.50;0.90;;;9.90;99.90;;;;;;5004397;28;20100;-66
2020/12/22 02:08:56;;;;;;;1.85;0.98;;;10.00;99.90;;;;;;5010479;28;20046;-66
2020/12/22 02:11:25;;;;;;;1.80;0.70;;;9.90;99.90;;;;;;5009758;28;20073;-66
2020/12/22 02:13:51;;;;;;;1.67;0.90;;;10.00;99.90;;;;;;5010048;28;20410;-65
2020/12/22 02:16:19;;;;;;;2.03;0.77;;;9.90;99.90;;;;;;5009556;28;20048;-65
2020/12/22 02:18:46;;;;;;;0.68;0.47;;;9.90;99.90;;;;;;5007425;28;20046;-66
2020/12/22 02:21:14;;;;;;;0.57;0.40;;;9.90;99.90;;;;;;5002740;28;20057;-67
2020/12/22 02:23:40;;;;;;;1.08;0.70;;;9.90;99.90;;;;;;5010257;28;20112;-66
2020/12/22 02:26:07;;;;;;;1.60;0.82;;;10.00;99.90;;;;;;5009599;28;20136;-66
2020/12/22 02:28:34;;;;;;;1.13;0.70;;;10.00;99.90;;;;;;5008927;28;20069;-66
2020/12/22 02:31:03;;;;;;;0.82;0.50;;;10.00;99.90;;;;;;5009670;28;20077;-66
2020/12/22 02:33:30;;;;;;;1.95;0.60;;;10.00;99.90;;;;;;5022480;28;20046;-66
2020/12/22 02:35:56;;;;;;;2.53;0.90;;;10.00;99.90;;;;;;5012768;28;20053;-66
2020/12/22 02:38:23;;;;;;;1.10;0.60;;;10.00;99.90;;;;;;5012154;28;20122;-66
2020/12/22 02:40:49;;;;;;;1.30;0.70;;;9.90;99.90;;;;;;5014270;28;20140;-66
2020/12/22 02:43:16;;;;;;;0.88;0.57;;;10.00;99.90;;;;;;5012763;28;20107;-66
2020/12/22 02:45:44;;;;;;;1.67;0.98;;;10.00;99.90;;;;;;5019273;28;20604;-66
2020/12/22 02:48:11;;;;;;;1.63;0.70;;;10.00;99.90;;;;;;5019557;28;20050;-66
2020/12/22 02:50:39;;;;;;;0.60;0.50;;;10.00;99.90;;;;;;5009965;28;20506;-66
2020/12/22 02:53:05;;;;;;;1.20;0.70;;;10.00;99.90;;;;;;5029758;28;20045;-66
2020/12/22 02:55:32;;;;;;;1.35;1.00;;;10.00;99.90;;;;;;5023019;28;20052;-67
2020/12/22 02:57:58;;;;;;;0.82;0.50;;;10.00;99.90;;;;;;5021986;28;20068;-67
2020/12/22 03:00:25;;;;;;;1.55;0.50;;;10.00;99.90;;;;;;5018752;28;20435;-66
2020/12/22 03:02:52;;;;;;;0.85;0.55;;;10.00;99.90;;;;;;5020873;28;20042;-66
2020/12/22 03:05:19;;;;;;;0.90;0.60;;;10.00;99.90;;;;;;5017024;28;20059;-66
2020/12/22 03:07:45;;;;;;;0.90;0.55;;;10.10;99.90;;;;;;5009535;28;20467;-67
2020/12/22 03:10:13;;;;;;;0.90;0.57;;;10.10;99.90;;;;;;5010141;28;20125;-66
2020/12/22 03:12:40;;;;;;;0.70;0.55;;;10.10;99.90;;;;;;5017475;28;20058;-66
2020/12/22 03:15:08;;;;;;;1.45;0.80;;;10.10;99.90;;;;;;5009867;28;20586;-66
2020/12/22 03:17:36;;;;;;;2.88;0.50;;;10.10;99.90;;;;;;5028231;28;20136;-67
2020/12/22 03:20:05;;;;;;;1.38;0.70;;;10.10;99.90;;;;;;5013708;28;20129;-66
2020/12/22 03:22:33;;;;;;;1.30;0.68;;;10.00;99.90;;;;;;5025551;28;20049;-66
2020/12/22 03:24:59;;;;;;;1.35;0.52;;;10.10;99.90;;;;;;5008424;28;20089;-66
2020/12/22 03:27:26;;;;;;;1.17;0.60;;;10.10;99.90;;;;;;5017651;28;20137;-66
2020/12/22 03:29:52;;;;;;;0.40;0.30;;;10.10;99.90;;;;;;5016469;28;20069;-65
2020/12/22 03:32:19;;;;;;;0.88;0.60;;;10.10;99.90;;;;;;5009518;28;20137;-65
2020/12/22 03:34:45;;;;;;;0.73;0.52;;;10.10;99.90;;;;;;5013564;28;20056;-66
2020/12/22 03:37:19;;;;;;;1.20;0.47;;;10.20;99.90;;;;;;5013335;28;20133;-65
2020/12/22 03:39:51;;;;;;;0.95;0.30;;;10.20;99.90;;;;;;5019003;28;20394;-65
2020/12/22 03:42:19;;;;;;;0.50;0.30;;;10.20;99.90;;;;;;4994833;28;20081;-65
2020/12/22 03:44:46;;;;;;;0.60;0.40;;;10.20;99.90;;;;;;5019989;28;20078;-65
2020/12/22 03:47:13;;;;;;;0.47;0.30;;;10.20;99.90;;;;;;5015472;28;20045;-66
2020/12/22 03:49:40;;;;;;;0.60;0.38;;;10.20;99.90;;;;;;5015618;28;20101;-66
2020/12/22 03:52:07;;;;;;;0.20;0.20;;;10.20;99.90;;;;;;5023689;28;20038;-66
2020/12/22 03:54:34;;;;;;;0.90;0.30;;;10.30;99.90;;;;;;5026265;28;20133;-66
2020/12/22 03:57:00;;;;;;;1.20;0.30;;;10.30;99.90;;;;;;5027704;28;20129;-66
2020/12/22 03:59:27;;;;;;;0.77;0.30;;;10.20;99.90;;;;;;5023138;28;20092;-66
2020/12/22 04:01:53;;;;;;;0.60;0.32;;;10.20;99.90;;;;;;5031039;28;20046;-66
2020/12/22 04:04:21;;;;;;;0.40;0.30;;;10.30;99.90;;;;;;5013707;28;20107;-66
2020/12/22 04:06:48;;;;;;;0.40;0.40;;;10.20;99.90;;;;;;5014648;28;20607;-66
2020/12/22 04:09:16;;;;;;;1.17;0.50;;;10.20;99.90;;;;;;5012877;28;20165;-66
2020/12/22 04:11:43;;;;;;;0.50;0.40;;;10.20;99.90;;;;;;5012311;28;20376;-66
2020/12/22 04:14:10;;;;;;;0.40;0.30;;;10.20;99.90;;;;;;5013207;28;20133;-66
2020/12/22 04:16:38;;;;;;;1.23;0.52;;;10.20;99.90;;;;;;5014030;28;20073;-67
2020/12/22 04:19:06;;;;;;;0.20;0.20;;;10.20;99.90;;;;;;5028761;28;20493;-66
2020/12/22 04:21:34;;;;;;;0.30;0.30;;;10.10;99.90;;;;;;5014222;28;20084;-66
2020/12/22 04:24:01;;;;;;;1.10;0.32;;;10.10;99.90;;;;;;5011969;28;20089;-66
2020/12/22 04:26:27;;;;;;;0.55;0.30;;;10.20;99.90;;;;;;5018390;28;20447;-66
2020/12/22 04:28:54;;;;;;;0.30;0.22;;;10.20;99.90;;;;;;5030589;28;20095;-66
2020/12/22 04:31:21;;;;;;;1.13;0.40;;;10.20;99.90;;;;;;5025328;28;20104;-66
2020/12/22 04:33:49;;;;;;;0.85;0.40;;;10.20;99.90;;;;;;5019521;28;20130;-66
2020/12/22 04:36:16;;;;;;;0.95;0.38;;;10.10;99.90;;;;;;5022828;28;20062;-66
2020/12/22 04:38:43;;;;;;;0.20;0.20;;;10.20;99.90;;;;;;5014018;28;20462;-66
2020/12/22 04:41:12;;;;;;;1.45;0.40;;;10.20;99.90;;;;;;5021399;28;20140;-66
2020/12/22 04:43:43;;;;;;;0.40;0.30;;;10.20;99.90;;;;;;5011854;28;20403;-66
2020/12/22 04:46:10;;;;;;;0.20;0.20;;;10.20;99.90;;;;;;5030939;28;20140;-66
2020/12/22 04:48:38;;;;;;;0.63;0.20;;;10.20;99.90;;;;;;4992328;28;20050;-66
2020/12/22 04:51:10;;;;;;;0.20;0.20;;;10.20;99.90;;;;;;5018613;28;20053;-66
2020/12/22 04:53:50;;;;;;;0.40;0.25;;;10.20;99.90;;;;;;5029404;28;20374;-66
2020/12/22 04:56:19;;;;;;;0.20;0.20;;;10.20;99.90;;;;;;5013322;28;20088;-66
2020/12/22 04:58:45;;;;;;;0.52;0.30;;;10.20;99.90;;;;;;5024109;28;20133;-66
2020/12/22 05:01:15;;;;;;;0.20;0.20;;;10.20;99.90;;;;;;5017392;28;20411;-66
2020/12/22 05:03:41;;;;;;;2.10;0.20;;;10.20;99.90;;;;;;5016753;28;20077;-66
2020/12/22 05:06:08;;;;;;;1.00;0.20;;;10.20;99.90;;;;;;5014803;28;20526;-66
2020/12/22 05:08:34;;;;;;;0.25;0.20;;;10.20;99.90;;;;;;5011690;28;20125;-66
2020/12/22 05:11:00;;;;;;;0.25;0.25;;;10.20;99.90;;;;;;5019678;28;20104;-66
2020/12/22 05:13:26;;;;;;;0.30;0.20;;;10.30;99.90;;;;;;5010055;28;20081;-66
2020/12/22 05:15:53;;;;;;;0.40;0.30;;;10.20;99.90;;;;;;5015722;28;20046;-66
2020/12/22 05:18:26;;;;;;;0.73;0.30;;;10.30;99.90;;;;;;5011472;28;20108;-66
2020/12/22 05:20:55;;;;;;;0.30;0.30;;;10.30;99.90;;;;;;5017242;28;20137;-66
2020/12/22 05:23:23;;;;;;;0.52;0.30;;;10.30;99.90;;;;;;5031212;28;20157;-66
2020/12/22 05:25:51;;;;;;;0.32;0.25;;;10.30;99.90;;;;;;5016048;28;20041;-66
2020/12/22 05:28:20;;;;;;;0.30;0.30;;;10.30;99.90;;;;;;5001622;28;20590;-66
2020/12/22 05:30:48;;;;;;;1.88;0.30;;;10.30;99.90;;;;;;5013073;28;20140;-66
2020/12/22 05:33:15;;;;;;;0.30;0.30;;;10.30;99.90;;;;;;5029719;28;20049;-66
2020/12/22 05:35:47;;;;;;;0.70;0.32;;;10.40;99.90;;;;;;5017924;28;20045;-66
2020/12/22 05:38:18;;;;;;;0.77;0.30;;;10.30;99.90;;;;;;5015005;28;20050;-66
2020/12/22 05:40:45;;;;;;;0.50;0.38;;;10.30;99.90;;;;;;5024495;28;20495;-66
2020/12/22 05:43:12;;;;;;;1.05;0.55;;;10.40;99.90;;;;;;5015525;28;20077;-66
2020/12/22 05:45:41;;;;;;;1.05;0.52;;;10.50;99.90;;;;;;5017408;28;20074;-66
2020/12/22 05:48:14;;;;;;;0.68;0.40;;;10.40;99.90;;;;;;5013106;28;20128;-66
2020/12/22 05:50:51;;;;;;;0.30;0.30;;;10.50;99.90;;;;;;5020063;28;20129;-66
2020/12/22 05:53:24;;;;;;;1.15;0.47;;;10.50;99.90;;;;;;5010828;28;20055;-67
2020/12/22 05:55:51;;;;;;;0.93;0.30;;;10.50;99.90;;;;;;5015225;28;20129;-67
2020/12/22 05:58:18;;;;;;;0.40;0.30;;;10.60;99.90;;;;;;5010864;28;20061;-67
2020/12/22 06:00:48;;;;;;;0.90;0.50;;;10.50;99.90;;;;;;5010931;28;20549;-67
2020/12/22 06:03:15;;;;;;;1.60;0.60;;;10.60;99.90;;;;;;5017926;28;20065;-67
2020/12/22 06:05:44;;;;;;;0.90;0.55;;;10.60;99.90;;;;;;5025797;28;20072;-66
2020/12/22 06:08:13;;;;;;;1.13;0.30;;;10.60;99.90;;;;;;5018214;28;20077;-67
2020/12/22 06:10:40;;;;;;;0.50;0.38;;;10.70;99.90;;;;;;5010047;28;20074;-66
2020/12/22 06:13:08;;;;;;;0.65;0.40;;;10.60;99.90;;;;;;5010877;28;20070;-65
2020/12/22 06:15:35;;;;;;;1.38;0.40;;;10.60;99.90;;;;;;5019453;28;20590;-66
2020/12/22 06:18:03;;;;;;;0.70;0.45;;;10.60;99.90;;;;;;5009911;28;20551;-66
2020/12/22 06:20:30;;;;;;;1.77;0.82;;;10.70;99.90;;;;;;5012483;28;20092;-66
2020/12/22 06:23:05;;;;;;;2.25;0.90;;;10.70;99.90;;;;;;5020746;28;20057;-66
2020/12/22 06:25:33;;;;;;;5.72;2.80;;;10.70;99.90;;;;;;5008290;28;20215;-66
2020/12/22 06:28:03;;;;;;;3.10;1.40;;;10.70;99.90;;;;;;5012376;28;20057;-66
2020/12/22 06:30:32;;;;;;;1.38;0.70;;;10.70;99.90;;;;;;5020240;28;20570;-66
2020/12/22 06:33:25;;;;;;;1.17;0.50;;;10.70;99.90;;;;;;5017267;28;20046;-66
2020/12/22 06:36:09;;;;;;;0.82;0.50;;;10.70;99.90;;;;;;5022361;28;20128;-66
2020/12/22 06:38:49;;;;;;;0.47;0.40;;;10.70;99.90;;;;;;5029099;28;20042;-66
2020/12/22 06:41:27;;;;;;;0.90;0.30;;;10.70;99.90;;;;;;5022545;28;20061;-66
2020/12/22 06:43:56;;;;;;;2.03;0.60;;;10.70;99.90;;;;;;5029313;28;20145;-66
2020/12/22 06:46:35;;;;;;;0.75;0.40;;;10.60;99.90;;;;;;5013918;28;20454;-66
2020/12/22 06:49:02;;;;;;;0.57;0.35;;;10.70;99.90;;;;;;5011034;28;20131;-66
2020/12/22 06:51:34;;;;;;;1.10;0.50;;;10.60;99.90;;;;;;5008853;28;20115;-66
2020/12/22 06:54:02;;;;;;;0.43;0.30;;;10.60;99.90;;;;;;5009591;28;20120;-66
2020/12/22 06:56:43;;;;;;;0.82;0.50;;;10.60;99.90;;;;;;5007412;28;20073;-66
2020/12/22 06:59:12;;;;;;;0.90;0.50;;;10.60;99.90;;;;;;5009085;28;20128;-66
2020/12/22 07:01:45;;;;;;;1.70;0.70;;;10.60;99.90;;;;;;5015344;28;20049;-66
2020/12/22 07:04:23;;;;;;;4.35;0.77;;;10.60;99.90;;;;;;5012221;28;20045;-66
2020/12/22 07:06:58;;;;;;;0.85;0.50;;;10.60;99.90;;;;;;5012097;28;20046;-68
2020/12/22 07:09:35;;;;;;;1.25;0.50;;;10.50;99.90;;;;;;5007619;28;20066;-68
2020/12/22 07:12:07;;;;;;;0.50;0.30;;;10.60;99.90;;;;;;4989878;28;20153;-68
2020/12/22 07:14:34;;;;;;;0.70;0.40;;;10.60;99.90;;;;;;5007755;28;20077;-68
2020/12/22 07:17:03;;;;;;;0.70;0.38;;;10.70;99.90;;;;;;5008010;28;20060;-65
2020/12/22 07:19:34;;;;;;;1.23;0.40;;;10.60;99.90;;;;;;5008075;28;20141;-68
2020/12/22 07:22:05;;;;;;;2.28;0.50;;;10.60;99.90;;;;;;5015909;28;20486;-67
2020/12/22 07:24:34;;;;;;;0.52;0.30;;;10.60;99.90;;;;;;5011792;28;20153;-67
2020/12/22 07:27:01;;;;;;;1.33;0.30;;;10.70;99.90;;;;;;5022450;28;20517;-67
2020/12/22 07:29:28;;;;;;;0.30;0.30;;;10.60;99.90;;;;;;5014027;28;20050;-68
2020/12/22 07:31:54;;;;;;;0.20;0.20;;;10.60;99.90;;;;;;5025340;28;20037;-67
2020/12/22 07:34:21;;;;;;;0.50;0.32;;;10.60;99.90;;;;;;5025837;28;20238;-67
2020/12/22 07:36:48;;;;;;;0.50;0.30;;;10.60;99.90;;;;;;5023566;28;20137;-68
2020/12/22 07:39:22;;;;;;;3.13;0.25;;;10.60;99.90;;;;;;5006711;28;20073;-68
2020/12/22 07:41:53;;;;;;;0.40;0.30;;;10.70;99.90;;;;;;5013931;28;20087;-68
2020/12/22 07:44:21;;;;;;;0.50;0.20;;;10.70;99.90;;;;;;5009717;28;20049;-65
2020/12/22 07:46:54;;;;;;;1.40;0.30;;;10.70;99.90;;;;;;5016596;28;20084;-65
2020/12/22 07:49:20;;;;;;;;;;;10.70;99.90;;;;;;5015166;28;20172;-68
2020/12/22 07:51:49;;;;;;;0.95;0.30;;;10.80;99.90;;;;;;5025448;28;19921;-67
2020/12/22 07:54:16;;;;;;;2.15;0.30;;;10.70;99.90;;;;;;5016709;28;20374;-67
2020/12/22 07:56:44;;;;;;;0.73;0.32;;;10.70;99.90;;;;;;5010768;28;20458;-66
2020/12/22 07:59:14;;;;;;;0.60;0.30;;;10.70;99.90;;;;;;5009201;28;20041;-67
2020/12/22 08:01:51;;;;;;;0.55;0.30;;;10.70;99.90;;;;;;5026832;28;20140;-67
2020/12/22 08:04:23;;;;;;;0.52;0.30;;;10.70;99.90;;;;;;5017423;28;20483;-67
2020/12/22 08:06:57;;;;;;;0.73;0.40;;;10.70;99.90;;;;;;5020510;28;20111;-67
2020/12/22 08:09:32;;;;;;;0.38;0.30;;;10.70;99.90;;;;;;5013010;28;20078;-67
2020/12/22 08:12:00;;;;;;;1.23;0.50;;;10.70;99.90;;;;;;5019725;28;20042;-67
2020/12/22 08:14:28;;;;;;;0.95;0.40;;;10.60;99.90;;;;;;5017036;28;20069;-67
2020/12/22 08:17:02;;;;;;;1.17;0.60;;;10.60;99.90;;;;;;5010535;28;20112;-67
2020/12/22 08:19:34;;;;;;;1.17;0.50;;;10.60;99.90;;;;;;5014832;28;20069;-66
2020/12/22 08:22:02;;;;;;;0.70;0.40;;;10.70;99.90;;;;;;5010483;28;20046;-66
2020/12/22 08:24:29;;;;;;;2.50;0.75;;;10.60;99.90;;;;;;5019520;28;20096;-67
2020/12/22 08:26:56;;;;;;;1.40;0.73;;;10.60;99.90;;;;;;5021954;28;20135;-66
2020/12/22 08:29:22;;;;;;;0.68;0.30;;;10.60;99.90;;;;;;5010886;28;20054;-66
2020/12/22 08:31:54;;;;;;;1.08;0.40;;;10.60;99.90;;;;;;5010929;28;20077;-67
2020/12/22 08:34:20;;;;;;;0.95;0.43;;;10.70;99.90;;;;;;5010084;28;20073;-66
2020/12/22 08:36:47;;;;;;;1.25;0.50;;;10.70;99.90;;;;;;5009417;28;20133;-66
2020/12/22 08:39:18;;;;;;;2.97;0.63;;;10.70;99.90;;;;;;5027901;28;20459;-66
2020/12/22 08:41:49;;;;;;;1.20;0.30;;;10.70;99.90;;;;;;5029693;28;20572;-66
2020/12/22 08:44:17;;;;;;;0.70;0.43;;;10.70;99.90;;;;;;5012000;28;20497;-66
2020/12/22 08:46:44;;;;;;;2.95;0.70;;;10.70;99.90;;;;;;5015253;28;20478;-66
2020/12/22 08:49:20;;;;;;;1.00;0.57;;;10.70;99.90;;;;;;5009965;28;20050;-66
2020/12/22 08:51:47;;;;;;;0.70;0.40;;;10.70;99.90;;;;;;5019114;28;20137;-66
2020/12/22 08:54:14;;;;;;;0.70;0.50;;;10.70;99.90;;;;;;5012609;28;20120;-66
2020/12/22 08:56:41;;;;;;;2.05;0.63;;;10.80;99.90;;;;;;5017515;28;20332;-67
2020/12/22 08:59:12;;;;;;;1.90;0.70;;;10.80;99.90;;;;;;5009065;28;20120;-66
2020/12/22 09:01:41;;;;;;;0.98;0.50;;;10.80;99.90;;;;;;5010256;28;20584;-66
2020/12/22 09:04:09;;;;;;;2.20;0.70;;;10.80;99.90;;;;;;5006496;28;20042;-66
2020/12/22 09:06:47;;;;;;;1.50;0.70;;;10.90;99.90;;;;;;5009864;28;20049;-66
2020/12/22 09:09:16;;;;;;;1.80;0.90;;;10.90;99.90;;;;;;4998097;28;20585;-66
2020/12/22 09:11:46;;;;;;;0.47;0.40;;;10.90;99.90;;;;;;5018812;28;20046;-66
2020/12/22 09:14:18;;;;;;;1.60;0.88;;;10.90;99.90;;;;;;5010701;28;20037;-66
2020/12/22 09:16:52;;;;;;;1.27;0.50;;;10.80;99.90;;;;;;5021631;28;20465;-66
2020/12/22 09:19:40;;;;;;;3.28;1.42;;;10.80;99.90;;;;;;5011538;28;20505;-66
2020/12/22 09:22:07;;;;;;;3.22;1.40;;;10.80;99.90;;;;;;4997553;28;20076;-66
2020/12/22 09:24:34;;;;;;;4.28;0.70;;;10.80;99.90;;;;;;5018049;28;20128;-66
2020/12/22 09:27:04;;;;;;;2.47;0.90;;;10.90;99.90;;;;;;5015358;28;20419;-67
2020/12/22 09:29:31;;;;;;;1.42;0.45;;;10.90;99.90;;;;;;5015873;28;20142;-67
2020/12/22 09:31:59;;;;;;;2.08;0.50;;;10.90;99.90;;;;;;5011183;28;20046;-67
2020/12/22 09:34:29;;;;;;;1.15;0.50;;;10.90;99.90;;;;;;5013361;28;20100;-67
2020/12/22 09:36:58;;;;;;;1.08;0.50;;;10.90;99.90;;;;;;5008961;28;20115;-66
2020/12/22 09:39:25;;;;;;;3.30;1.20;;;10.90;99.90;;;;;;5011390;28;20177;-67
2020/12/22 09:41:53;;;;;;;2.15;0.80;;;10.90;99.90;;;;;;5025263;28;20099;-66
2020/12/22 09:44:20;;;;;;;2.47;1.05;;;11.00;99.90;;;;;;5020746;28;20077;-67
2020/12/22 09:46:51;;;;;;;2.33;1.33;;;11.00;99.90;;;;;;5011471;28;20128;-67
2020/12/22 09:49:18;;;;;;;4.13;1.10;;;10.90;99.90;;;;;;5014782;28;20296;-66
2020/12/22 09:51:45;;;;;;;3.28;0.70;;;10.90;99.90;;;;;;5014414;28;20129;-66
2020/12/22 09:54:16;;;;;;;0.68;0.50;;;10.90;99.90;;;;;;5014566;28;20041;-66
2020/12/22 09:56:43;;;;;;;0.60;0.47;;;11.00;99.90;;;;;;5020520;28;20049;-66
2020/12/22 09:59:10;;;;;;;1.10;0.60;;;11.00;99.90;;;;;;5016037;28;20391;-66
2020/12/22 10:01:36;;;;;;;1.50;0.70;;;11.00;99.90;;;;;;5018029;28;20394;-66
2020/12/22 10:04:02;;;;;;;1.08;0.50;;;11.00;99.90;;;;;;5023036;28;20084;-66
2020/12/22 10:06:29;;;;;;;0.90;0.50;;;11.10;99.90;;;;;;5022429;28;20053;-67
2020/12/22 10:08:56;;;;;;;2.05;0.70;;;11.10;99.90;;;;;;5026572;28;20145;-67
2020/12/22 10:11:23;;;;;;;1.02;0.63;;;11.10;99.90;;;;;;5023417;28;20058;-67
2020/12/22 10:13:51;;;;;;;0.77;0.50;;;11.10;99.90;;;;;;5012914;28;20050;-67
2020/12/22 10:16:20;;;;;;;2.63;0.40;;;11.10;99.90;;;;;;5011838;28;20512;-68
2020/12/22 10:18:47;;;;;;;2.20;0.52;;;11.00;99.90;;;;;;5025991;28;20120;-67
2020/12/22 10:21:15;;;;;;;1.80;0.70;;;11.10;99.90;;;;;;5016005;28;20057;-67
2020/12/22 10:23:42;;;;;;;1.23;0.60;;;11.00;99.90;;;;;;5010571;28;20116;-66
2020/12/22 10:26:11;;;;;;;5.80;0.50;;;11.00;99.90;;;;;;5006750;28;20601;-67
2020/12/22 10:28:39;;;;;;;3.83;1.65;;;11.00;99.90;;;;;;5007739;28;20057;-67
2020/12/22 10:31:12;;;;;;;1.75;1.00;;;11.00;99.90;;;;;;5009118;28;20464;-67
2020/12/22 10:33:38;;;;;;;2.00;0.80;;;11.10;99.90;;;;;;5009159;28;20077;-67
2020/12/22 10:36:04;;;;;;;1.55;0.70;;;11.10;99.90;;;;;;5008795;28;20053;-67
2020/12/22 10:38:47;;;;;;;1.90;0.82;;;11.10;99.90;;;;;;5008216;28;20049;-67
2020/12/22 10:41:14;;;;;;;1.67;0.80;;;11.10;99.90;;;;;;5007586;28;20057;-66
2020/12/22 10:43:40;;;;;;;3.05;1.10;;;11.10;99.90;;;;;;5006260;28;20077;-66
2020/12/22 10:46:08;;;;;;;0.85;0.52;;;11.10;99.90;;;;;;5009197;28;20530;-67
2020/12/22 10:48:34;;;;;;;4.32;1.70;;;11.20;99.90;;;;;;5006996;28;20108;-66
2020/12/22 10:51:01;;;;;;;3.13;1.05;;;11.20;99.90;;;;;;5007536;28;20085;-67
2020/12/22 10:53:27;;;;;;;1.90;0.80;;;11.20;99.90;;;;;;5008241;28;20141;-66
2020/12/22 10:55:54;;;;;;;2.60;1.10;;;11.20;99.90;;;;;;5008978;28;20050;-67
2020/12/22 10:58:21;;;;;;;1.23;0.60;;;11.20;99.90;;;;;;5008674;28;20045;-67
2020/12/22 11:00:50;;;;;;;2.55;1.05;;;11.30;99.90;;;;;;5007059;28;20367;-67
2020/12/22 11:03:20;;;;;;;1.95;0.80;;;11.30;99.90;;;;;;5008064;28;20184;-67
2020/12/22 11:08:52;;;;;;;1.98;0.80;;;11.40;99.90;;;;;;4984702;28;20073;-69
2020/12/22 11:11:18;;;;;;;1.13;0.65;;;11.30;99.90;;;;;;5007201;28;20042;-69
2020/12/22 11:13:45;;;;;;;1.08;0.60;;;11.30;99.90;;;;;;4994183;28;20440;-67
2020/12/22 11:16:12;;;;;;;0.80;0.40;;;11.30;99.90;;;;;;5008588;28;20038;-69
2020/12/22 11:18:39;;;;;;;2.70;0.75;;;11.30;99.90;;;;;;5007734;28;20231;-66
2020/12/22 11:21:12;;;;;;;1.13;0.55;;;11.40;99.90;;;;;;5008384;28;20084;-66
2020/12/22 11:23:44;;;;;;;0.93;0.60;;;11.30;99.90;;;;;;5008229;28;20060;-67
2020/12/22 11:26:19;;;;;;;1.17;0.70;;;11.40;99.90;;;;;;5005702;28;20068;-67
2020/12/22 11:28:46;;;;;;;1.00;0.60;;;11.40;99.90;;;;;;5007165;28;20045;-67
2020/12/22 11:31:12;;;;;;;1.15;0.70;;;11.40;99.90;;;;;;5006585;28;20095;-66
2020/12/22 11:33:42;;;;;;;2.60;0.60;;;11.30;99.90;;;;;;5007097;28;20142;-66
2020/12/22 11:36:15;;;;;;;1.30;0.60;;;11.40;99.90;;;;;;5007884;28;20355;-67
2020/12/22 11:38:42;;;;;;;1.52;0.75;;;11.40;99.90;;;;;;5010988;28;20073;-67
2020/12/22 11:41:09;;;;;;;1.10;0.50;;;11.30;99.90;;;;;;5001499;28;20506;-67
2020/12/22 11:43:36;;;;;;;3.92;1.27;;;11.40;99.90;;;;;;5010780;28;20507;-66
2020/12/22 11:46:06;;;;;;;0.70;0.43;;;11.40;99.90;;;;;;5011294;28;20046;-67
2020/12/22 11:48:32;;;;;;;1.42;0.50;;;11.40;99.90;;;;;;5011523;28;20077;-67
2020/12/22 11:50:58;;;;;;;0.82;0.50;;;11.40;99.90;;;;;;5011420;28;20045;-67
2020/12/22 11:53:25;;;;;;;1.77;1.05;;;11.50;99.90;;;;;;5011549;28;20085;-67
2020/12/22 11:55:52;;;;;;;1.50;0.60;;;11.50;99.90;;;;;;5010665;28;20069;-67
2020/12/22 11:58:20;;;;;;;1.70;0.50;;;11.50;99.90;;;;;;5010645;28;20050;-67
2020/12/22 12:00:46;;;;;;;2.25;0.60;;;11.60;99.90;;;;;;5009963;28;20041;-67
2020/12/22 12:03:13;;;;;;;1.40;0.70;;;11.50;99.90;;;;;;5011920;28;20061;-67
2020/12/22 12:05:40;;;;;;;0.70;0.40;;;11.50;99.90;;;;;;5009713;28;20455;-67
2020/12/22 12:08:07;;;;;;;1.08;0.60;;;11.50;99.90;;;;;;5010479;28;20045;-68
2020/12/22 12:10:34;;;;;;;1.67;0.60;;;11.50;99.90;;;;;;5009708;28;20081;-68
2020/12/22 12:13:00;;;;;;;0.68;0.40;;;11.50;99.90;;;;;;5008399;28;20566;-67
2020/12/22 12:15:27;;;;;;;1.92;0.50;;;11.40;99.90;;;;;;5010484;28;20042;-67
2020/12/22 12:17:53;;;;;;;2.80;0.70;;;11.50;99.90;;;;;;5011130;28;20462;-67
2020/12/22 12:20:24;;;;;;;0.22;0.20;;;11.50;99.90;;;;;;5011775;28;20041;-67
2020/12/22 12:22:51;;;;;;;0.68;0.30;;;11.40;99.90;;;;;;5010819;28;20053;-67
2020/12/22 12:25:18;;;;;;;1.13;0.50;;;11.50;99.90;;;;;;5011806;28;20489;-67
2020/12/22 12:27:44;;;;;;;0.90;0.40;;;11.50;99.90;;;;;;5011391;28;20049;-67
2020/12/22 12:30:10;;;;;;;1.10;0.60;;;11.60;99.90;;;;;;5011050;28;20065;-66
2020/12/22 12:32:37;;;;;;;0.80;0.60;;;11.60;99.90;;;;;;5011087;28;20082;-67
2020/12/22 12:35:03;;;;;;;2.45;0.60;;;11.50;99.90;;;;;;5010593;28;20069;-68
2020/12/22 12:37:30;;;;;;;1.42;0.50;;;11.50;99.90;;;;;;5011021;28;20092;-67
2020/12/22 12:39:56;;;;;;;2.30;0.80;;;11.50;99.90;;;;;;5010755;28;20077;-67
2020/12/22 12:42:26;;;;;;;0.80;0.40;;;11.50;99.90;;;;;;5011841;28;20502;-67
2020/12/22 12:44:53;;;;;;;2.40;0.57;;;11.50;99.90;;;;;;5011904;28;20520;-67
2020/12/22 12:47:20;;;;;;;0.85;0.40;;;11.50;99.90;;;;;;5010678;28;20089;-67
2020/12/22 12:49:47;;;;;;;1.25;0.43;;;11.40;99.90;;;;;;5011020;28;20077;-67
2020/12/22 12:52:14;;;;;;;1.25;0.70;;;11.50;99.90;;;;;;5010852;28;20112;-67
2020/12/22 12:54:40;;;;;;;0.88;0.40;;;11.50;99.90;;;;;;5011350;28;20104;-67
2020/12/22 12:57:07;;;;;;;1.38;0.50;;;11.60;99.90;;;;;;5011241;28;20049;-67